Time;durP1;ratioP1;P1;durP2;ratioP2;P2;SDS_P1;SDS_P2;PMS_P1;PMS_P2;Temp;Humidity;BMP_temperature;BMP_pressure;BME280_temperature;BME280_humidity;BME280_pressure;Samples;Min_cycle;Max_cycle;Signal;HPM_P1;HPM_P2
2023/05/02 04:31:51;;;;;;;13.27;6.28;;;13.20;75.40;;;;;;5197715;23;20492;-77
2023/05/02 04:34:16;;;;;;;15.27;5.63;;;13.20;75.00;;;;;;4916799;29;20148;-76
2023/05/02 04:36:45;;;;;;;13.90;5.85;;;13.20;74.90;;;;;;4938697;29;20031;-76
2023/05/02 04:39:11;;;;;;;16.30;6.47;;;13.30;74.80;;;;;;4921047;29;20478;-76
2023/05/02 04:41:37;;;;;;;16.45;5.60;;;13.30;74.30;;;;;;4935534;29;20024;-76
2023/05/02 04:44:02;;;;;;;12.85;5.95;;;13.30;74.20;;;;;;4902840;29;20039;-76
2023/05/02 04:46:28;;;;;;;11.50;6.07;;;13.30;73.80;;;;;;4918955;29;20028;-76
2023/05/02 04:48:54;;;;;;;12.93;5.00;;;13.30;73.70;;;;;;4903097;29;20036;-76
2023/05/02 04:51:19;;;;;;;12.05;5.72;;;13.30;73.60;;;;;;4920941;29;20038;-80
2023/05/02 04:53:45;;;;;;;12.32;5.75;;;13.40;73.80;;;;;;4909335;29;20032;-79
2023/05/02 05:01:45;;;;;;;17.45;6.43;;;13.40;74.30;;;;;;5011841;23;19951;-77
2023/05/02 05:04:10;;;;;;;15.93;6.00;;;13.40;73.70;;;;;;4945715;28;20412;-76
2023/05/02 05:06:36;;;;;;;11.45;5.43;;;13.40;73.30;;;;;;4957283;29;20114;-77
2023/05/02 05:09:02;;;;;;;11.13;5.40;;;13.40;73.60;;;;;;4957022;29;20555;-76
2023/05/02 05:11:28;;;;;;;13.63;5.38;;;13.50;73.20;;;;;;4958220;28;20062;-76
2023/05/02 05:13:53;;;;;;;12.40;5.85;;;13.40;73.20;;;;;;4951070;29;20027;-81
2023/05/02 05:16:19;;;;;;;10.60;5.07;;;13.50;73.50;;;;;;4938765;29;20421;-86
2023/05/02 05:18:45;;;;;;;8.65;5.40;;;13.40;73.30;;;;;;4955132;29;20027;-83
2023/05/02 05:21:10;;;;;;;15.27;5.75;;;13.40;73.40;;;;;;4940165;29;20050;-77
2023/05/02 05:23:37;;;;;;;12.10;5.13;;;13.40;73.40;;;;;;4933578;29;20039;-80
2023/05/02 05:26:10;;;;;;;14.20;6.03;;;13.50;73.30;;;;;;4938409;29;20071;-79
2023/05/02 05:28:38;;;;;;;13.85;5.68;;;13.50;73.70;;;;;;4931177;29;20110;-80
2023/05/02 05:31:06;;;;;;;11.20;5.53;;;13.50;74.00;;;;;;4952776;28;20035;-92
2023/05/02 05:33:32;;;;;;;11.07;5.60;;;13.60;73.80;;;;;;4939555;29;20082;-91
2023/05/02 05:36:06;;;;;;;14.70;5.32;;;13.50;73.40;;;;;;4941784;29;20031;-91
2023/05/02 05:38:32;;;;;;;11.38;5.57;;;13.60;73.90;;;;;;4941938;29;20024;-91
2023/05/02 05:40:58;;;;;;;16.00;5.75;;;13.50;73.90;;;;;;4936486;29;20024;-91
2023/05/02 05:43:25;;;;;;;10.55;5.80;;;13.50;73.70;;;;;;4920493;29;20035;-82
2023/05/02 05:45:51;;;;;;;11.70;5.43;;;13.60;73.50;;;;;;4921182;29;21039;-83
2023/05/02 05:48:17;;;;;;;16.00;5.93;;;13.60;73.10;;;;;;4938249;29;20115;-80
2023/05/02 05:50:42;;;;;;;11.82;5.93;;;13.70;73.20;;;;;;4956612;28;20050;-81
2023/05/02 05:53:08;;;;;;;13.65;5.30;;;13.70;73.30;;;;;;4976711;28;20063;-80
2023/05/02 05:55:34;;;;;;;8.98;5.03;;;13.70;73.20;;;;;;4972614;28;20033;-80
2023/05/02 05:57:59;;;;;;;14.45;6.25;;;13.70;73.10;;;;;;4959370;28;20027;-80
2023/05/02 06:00:25;;;;;;;13.80;5.45;;;13.70;72.90;;;;;;4957274;29;20091;-81
2023/05/02 06:02:51;;;;;;;16.05;6.88;;;13.70;73.10;;;;;;4953099;29;20470;-81
2023/05/02 06:05:16;;;;;;;11.50;5.68;;;13.70;73.00;;;;;;4947359;29;20082;-81
2023/05/02 06:07:42;;;;;;;10.02;5.60;;;13.80;73.10;;;;;;4940154;29;20023;-80
2023/05/02 06:10:08;;;;;;;14.80;6.97;;;13.80;73.20;;;;;;4954916;29;20032;-81
2023/05/02 06:12:34;;;;;;;12.57;6.10;;;13.90;72.70;;;;;;4938203;29;20746;-81
2023/05/02 06:15:00;;;;;;;16.02;5.50;;;14.00;72.90;;;;;;4938077;29;20134;-80
2023/05/02 06:17:26;;;;;;;14.55;6.20;;;14.00;73.10;;;;;;4938152;29;20059;-80
2023/05/02 06:19:52;;;;;;;16.13;5.60;;;14.00;73.40;;;;;;4945839;29;20035;-81
2023/05/02 06:22:18;;;;;;;12.02;5.57;;;14.00;72.80;;;;;;4957270;29;20063;-81
2023/05/02 06:24:44;;;;;;;9.55;4.85;;;14.00;72.80;;;;;;4956132;29;20110;-80
2023/05/02 06:27:09;;;;;;;12.13;5.30;;;13.90;72.70;;;;;;4957220;29;20048;-81
2023/05/02 06:29:35;;;;;;;14.82;5.20;;;14.00;72.70;;;;;;4957200;29;20454;-81
2023/05/02 06:32:01;;;;;;;10.07;4.95;;;14.00;72.60;;;;;;4957016;29;20038;-81
2023/05/02 06:34:26;;;;;;;11.52;5.72;;;14.10;72.70;;;;;;4955982;29;20038;-81
2023/05/02 06:36:55;;;;;;;10.45;5.35;;;14.20;72.50;;;;;;4952102;28;20118;-81
2023/05/02 06:39:21;;;;;;;8.65;5.18;;;14.20;72.30;;;;;;4943660;29;20035;-81
2023/05/02 06:41:47;;;;;;;10.35;5.32;;;14.20;72.20;;;;;;4942221;29;20043;-81
2023/05/02 06:44:13;;;;;;;10.38;4.88;;;14.10;72.60;;;;;;4941566;29;20024;-81
2023/05/02 06:46:39;;;;;;;11.73;5.28;;;14.30;72.50;;;;;;4941361;29;20035;-81
2023/05/02 06:49:04;;;;;;;8.98;4.70;;;14.30;71.80;;;;;;4968616;28;20038;-81
2023/05/02 06:51:31;;;;;;;11.00;5.03;;;14.30;71.60;;;;;;4960622;29;20397;-81
2023/05/02 06:53:56;;;;;;;10.55;5.60;;;14.50;71.40;;;;;;4959305;29;20027;-81
2023/05/02 06:56:26;;;;;;;10.93;5.05;;;14.40;71.40;;;;;;4960593;29;20095;-81
2023/05/02 06:58:51;;;;;;;11.07;5.20;;;14.40;71.70;;;;;;4959239;29;20027;-81
2023/05/02 07:01:17;;;;;;;10.25;5.15;;;14.40;71.70;;;;;;4953013;29;20076;-81
2023/05/02 07:03:43;;;;;;;7.20;4.47;;;14.80;71.00;;;;;;4958708;28;20047;-81
2023/05/02 07:06:08;;;;;;;9.73;5.03;;;15.00;70.40;;;;;;4943313;29;20030;-81
2023/05/02 07:08:34;;;;;;;9.75;5.35;;;15.20;70.10;;;;;;4939086;29;20032;-81
2023/05/02 07:11:01;;;;;;;12.77;5.30;;;15.30;69.50;;;;;;4941027;29;20522;-81
2023/05/02 07:13:27;;;;;;;8.93;4.63;;;15.30;68.90;;;;;;4940910;29;20032;-81
2023/05/02 07:15:53;;;;;;;8.52;4.47;;;15.60;68.70;;;;;;4923665;29;20038;-81
2023/05/02 07:18:19;;;;;;;8.88;4.40;;;17.00;65.90;;;;;;4952370;29;20106;-79
2023/05/02 07:20:44;;;;;;;7.40;3.85;;;19.00;60.70;;;;;;4973973;28;20030;-80
2023/05/02 07:23:10;;;;;;;6.90;3.80;;;20.30;55.30;;;;;;4979515;28;20062;-80
2023/05/02 07:25:36;;;;;;;8.50;3.75;;;21.20;52.30;;;;;;4978215;28;20388;-80
2023/05/02 07:28:02;;;;;;;10.27;4.45;;;21.90;50.70;;;;;;4942809;29;20032;-80
2023/05/02 07:30:27;;;;;;;7.07;3.72;;;21.80;50.20;;;;;;4940627;29;20082;-80
2023/05/02 07:32:53;;;;;;;6.55;3.28;;;22.10;49.40;;;;;;4945061;29;20035;-80
2023/05/02 07:35:19;;;;;;;6.80;3.70;;;22.80;48.50;;;;;;4959815;29;20091;-80
2023/05/02 07:37:45;;;;;;;9.65;4.25;;;23.50;47.30;;;;;;4938424;29;20087;-80
2023/05/02 07:40:10;;;;;;;6.30;3.50;;;24.40;44.60;;;;;;4923635;29;20032;-80
2023/05/02 07:42:36;;;;;;;6.18;3.67;;;25.20;42.80;;;;;;4940489;29;20028;-80
2023/05/02 07:45:02;;;;;;;7.63;3.20;;;26.70;40.10;;;;;;4940484;29;20027;-80
2023/05/02 07:47:28;;;;;;;4.97;2.88;;;27.80;38.20;;;;;;4923212;29;20709;-80
2023/05/02 07:49:54;;;;;;;7.28;3.53;;;28.60;36.30;;;;;;4957580;28;20086;-80
2023/05/02 07:52:20;;;;;;;8.15;3.85;;;29.10;34.60;;;;;;4958867;29;20636;-80
2023/05/02 07:54:50;;;;;;;6.70;3.28;;;29.80;33.40;;;;;;4938956;29;20027;-80
2023/05/02 07:57:17;;;;;;;6.38;3.38;;;30.30;33.40;;;;;;4969716;28;20033;-80
2023/05/02 07:59:43;;;;;;;5.55;3.13;;;31.30;31.10;;;;;;4978943;28;20021;-80
2023/05/02 08:02:08;;;;;;;6.22;3.25;;;31.40;30.80;;;;;;4978505;28;20129;-80
2023/05/02 08:04:34;;;;;;;5.18;3.13;;;32.10;31.00;;;;;;4959551;28;20398;-80
2023/05/02 08:07:00;;;;;;;6.43;3.38;;;32.30;30.90;;;;;;4942230;29;20023;-81
2023/05/02 08:09:26;;;;;;;7.32;3.42;;;32.30;30.00;;;;;;4949345;29;20039;-81
2023/05/02 08:11:51;;;;;;;5.65;3.00;;;32.20;30.10;;;;;;4957937;29;20031;-81
2023/05/02 08:14:17;;;;;;;6.68;2.97;;;32.20;30.50;;;;;;4959386;29;20020;-80
2023/05/02 08:16:43;;;;;;;6.15;3.30;;;32.90;29.00;;;;;;4959050;29;20074;-80
2023/05/02 08:19:09;;;;;;;3.97;2.72;;;33.40;28.00;;;;;;4942021;29;20019;-80
2023/05/02 08:21:35;;;;;;;6.47;3.58;;;33.60;28.00;;;;;;4957796;29;20035;-80
2023/05/02 08:24:01;;;;;;;6.15;3.05;;;33.70;26.70;;;;;;4941765;29;20027;-81
2023/05/02 08:26:27;;;;;;;4.80;2.63;;;34.00;27.30;;;;;;4957784;29;20031;-81
2023/05/02 08:28:54;;;;;;;4.47;2.78;;;34.60;27.00;;;;;;4958813;29;20023;-81
2023/05/02 08:31:20;;;;;;;5.30;2.85;;;35.10;27.30;;;;;;4957501;29;20038;-81
2023/05/02 08:33:46;;;;;;;6.45;2.95;;;35.30;27.20;;;;;;4958634;29;20024;-81
2023/05/02 08:36:12;;;;;;;5.72;3.03;;;35.30;26.60;;;;;;4957459;29;20030;-81
2023/05/02 08:38:38;;;;;;;4.68;2.97;;;34.50;27.20;;;;;;4958732;29;20057;-80
2023/05/02 08:41:10;;;;;;;5.88;3.17;;;34.30;27.30;;;;;;4957826;29;20043;-81
2023/05/02 08:43:38;;;;;;;5.40;2.72;;;34.60;28.30;;;;;;4958437;29;20034;-81
2023/05/02 08:46:07;;;;;;;5.20;2.55;;;34.70;27.50;;;;;;4958483;29;20035;-83
2023/05/02 08:48:35;;;;;;;6.90;3.50;;;34.50;28.10;;;;;;4954337;29;20102;-81
2023/05/02 08:51:02;;;;;;;6.32;3.35;;;33.80;27.60;;;;;;4922029;29;20040;-81
2023/05/02 08:53:31;;;;;;;5.50;2.92;;;33.30;28.60;;;;;;4939191;29;20038;-80
2023/05/02 08:55:58;;;;;;;4.65;3.00;;;33.50;29.50;;;;;;4953779;28;20031;-80
2023/05/02 08:58:24;;;;;;;5.55;3.85;;;33.60;28.20;;;;;;4940523;29;20111;-80
2023/05/02 09:00:52;;;;;;;5.15;3.03;;;33.50;28.60;;;;;;4938825;29;20079;-81
2023/05/02 09:03:23;;;;;;;5.90;3.22;;;33.70;29.10;;;;;;4946705;29;20038;-81
2023/05/02 09:05:58;;;;;;;4.70;2.47;;;33.80;27.60;;;;;;4957369;29;20035;-81
2023/05/02 09:08:24;;;;;;;4.88;2.40;;;33.70;28.10;;;;;;4968978;28;20023;-81
2023/05/02 09:10:50;;;;;;;6.85;2.33;;;33.80;26.10;;;;;;4956947;29;20031;-80
2023/05/02 09:13:34;;;;;;;3.63;2.20;;;34.00;27.30;;;;;;4958120;29;20198;-81
2023/05/02 09:16:04;;;;;;;4.47;2.10;;;33.60;27.20;;;;;;4940452;29;20129;-80
2023/05/02 09:18:32;;;;;;;4.45;1.80;;;33.60;26.80;;;;;;4939204;29;20031;-81
2023/05/02 09:21:00;;;;;;;3.65;1.60;;;33.70;27.10;;;;;;4941047;29;20035;-80
2023/05/02 09:23:56;;;;;;;5.07;1.98;;;33.90;28.30;;;;;;4938811;29;20042;-81
2023/05/02 09:26:31;;;;;;;2.92;1.63;;;34.20;26.90;;;;;;4923010;29;20051;-81
2023/05/02 09:28:58;;;;;;;3.58;2.03;;;33.90;27.20;;;;;;4938652;29;20023;-81
2023/05/02 09:31:26;;;;;;;3.85;1.90;;;34.20;27.10;;;;;;4938522;29;20028;-80
2023/05/02 09:33:52;;;;;;;4.63;2.00;;;34.60;28.00;;;;;;4949414;29;20023;-81
2023/05/02 09:36:19;;;;;;;3.40;1.77;;;33.90;26.30;;;;;;4957674;29;20035;-80
2023/05/02 09:38:49;;;;;;;4.03;1.70;;;34.00;27.80;;;;;;4956708;29;20493;-80
2023/05/02 09:41:18;;;;;;;3.83;1.63;;;34.40;28.00;;;;;;4940306;29;20062;-81
2023/05/02 09:43:56;;;;;;;2.67;1.52;;;34.60;27.00;;;;;;4957602;29;20516;-81
2023/05/02 09:46:21;;;;;;;3.65;3.08;;;34.80;27.10;;;;;;4956383;29;20106;-81
2023/05/02 09:48:52;;;;;;;3.13;1.70;;;35.00;26.90;;;;;;4958277;28;20042;-81
2023/05/02 09:51:20;;;;;;;3.28;1.35;;;34.40;25.30;;;;;;4941386;29;20070;-81
2023/05/02 09:53:46;;;;;;;3.22;1.88;;;34.30;27.90;;;;;;4955242;28;20041;-81
2023/05/02 09:56:12;;;;;;;4.25;1.77;;;34.00;27.60;;;;;;4957449;29;20031;-81
2023/05/02 09:58:38;;;;;;;2.20;1.33;;;33.80;27.40;;;;;;4957557;29;20117;-81
2023/05/02 10:01:03;;;;;;;3.10;1.80;;;33.80;28.10;;;;;;4940032;29;20075;-81
2023/05/02 10:03:30;;;;;;;3.30;1.48;;;33.70;27.90;;;;;;4958907;28;20612;-81
2023/05/02 10:05:57;;;;;;;4.22;1.90;;;32.90;28.20;;;;;;4957247;29;20024;-81
2023/05/02 10:08:27;;;;;;;4.20;2.00;;;32.80;27.90;;;;;;4956717;29;20036;-82
2023/05/02 10:10:57;;;;;;;3.40;1.85;;;32.60;28.70;;;;;;4941227;29;20114;-81
2023/05/02 10:13:31;;;;;;;5.00;2.10;;;32.40;29.40;;;;;;4961298;29;20027;-81
2023/05/02 10:15:56;;;;;;;3.92;2.20;;;32.40;30.10;;;;;;4959943;29;20068;-81
2023/05/02 10:18:55;;;;;;;3.10;1.70;;;32.20;28.60;;;;;;4961219;29;20035;-81
2023/05/02 10:21:28;;;;;;;2.97;1.90;;;31.00;30.10;;;;;;4932211;29;20046;-81
2023/05/02 10:23:54;;;;;;;5.18;2.45;;;30.70;31.10;;;;;;4960330;29;20028;-81
2023/05/02 10:26:22;;;;;;;2.72;1.83;;;30.20;30.80;;;;;;4960973;29;20035;-81
2023/05/02 10:28:48;;;;;;;4.82;2.60;;;29.00;31.10;;;;;;4961085;29;20135;-81
2023/05/02 10:31:15;;;;;;;3.78;2.00;;;28.00;35.10;;;;;;4960847;29;20035;-81
2023/05/02 10:33:40;;;;;;;2.15;1.73;;;27.60;35.30;;;;;;4959788;29;20027;-80
2023/05/02 10:36:08;;;;;;;2.22;1.63;;;26.80;35.40;;;;;;4960677;29;20393;-81
2023/05/02 10:38:35;;;;;;;5.57;2.40;;;26.30;37.70;;;;;;4960822;29;20019;-81
2023/05/02 10:41:07;;;;;;;4.25;1.70;;;25.80;38.50;;;;;;4959656;29;20038;-81
2023/05/02 10:43:35;;;;;;;3.67;2.03;;;25.60;38.90;;;;;;4960730;29;20086;-81
2023/05/02 10:46:04;;;;;;;3.50;1.80;;;25.60;39.70;;;;;;4957093;29;20352;-81
2023/05/02 10:48:30;;;;;;;;;;;25.40;39.30;;;;;;4952684;29;20070;-81
2023/05/02 10:51:00;;;;;;;7.22;1.80;;;25.30;39.60;;;;;;4939150;29;19915;-81
2023/05/02 10:53:30;;;;;;;;;;;25.30;40.40;;;;;;4951309;28;20461;-81
2023/05/02 10:56:25;;;;;;;2.60;1.30;;;25.30;41.20;;;;;;4960465;29;20001;-81
2023/05/02 10:59:39;;;;;;;3.13;1.10;;;24.90;39.70;;;;;;4943268;29;20043;-81
2023/05/02 11:02:29;;;;;;;3.53;1.42;;;24.80;40.40;;;;;;4933078;28;20052;-81
2023/05/02 11:05:01;;;;;;;;;;;24.30;39.80;;;;;;4941493;29;20024;-81
2023/05/02 11:07:28;;;;;;;2.88;1.60;;;24.10;40.70;;;;;;4952536;29;19907;-81
2023/05/02 11:10:16;;;;;;;2.72;1.52;;;24.20;42.90;;;;;;4960259;29;20095;-81
2023/05/02 11:12:47;;;;;;;2.78;1.70;;;23.90;41.90;;;;;;4940671;29;20027;-81
2023/05/02 11:15:14;;;;;;;2.75;1.60;;;23.80;42.00;;;;;;4940854;29;20023;-81
2023/05/02 11:18:02;;;;;;;2.95;1.27;;;24.10;42.90;;;;;;4940998;29;20118;-81
2023/05/02 11:20:30;;;;;;;3.72;1.45;;;24.30;42.90;;;;;;4941229;29;20074;-81
2023/05/02 11:23:20;;;;;;;3.45;1.48;;;24.00;41.30;;;;;;4940525;29;20067;-81
2023/05/02 11:25:50;;;;;;;4.28;1.70;;;23.80;41.10;;;;;;4940904;29;20068;-81
2023/05/02 11:28:48;;;;;;;4.22;1.50;;;23.60;41.90;;;;;;4953010;29;20023;-81
2023/05/02 11:31:26;;;;;;;3.67;1.58;;;23.50;41.80;;;;;;4958840;28;20042;-80
2023/05/02 11:33:56;;;;;;;3.53;1.55;;;23.30;42.50;;;;;;4947602;29;20020;-81
2023/05/02 11:36:34;;;;;;;3.22;1.63;;;23.40;44.00;;;;;;4923741;29;20055;-81
2023/05/02 11:39:02;;;;;;;2.50;1.58;;;23.60;44.50;;;;;;4923477;29;20032;-80
2023/05/02 11:41:41;;;;;;;3.60;1.80;;;23.60;43.70;;;;;;4940657;29;20067;-81
2023/05/02 11:44:07;;;;;;;3.90;2.13;;;23.60;41.60;;;;;;4940975;28;20028;-81
2023/05/02 11:46:35;;;;;;;4.57;1.73;;;23.50;42.30;;;;;;4960778;28;20035;-81
2023/05/02 11:49:01;;;;;;;4.15;1.45;;;23.30;42.10;;;;;;4959682;29;20166;-81
2023/05/02 11:51:27;;;;;;;3.13;2.00;;;23.30;42.50;;;;;;4959536;29;20059;-81
2023/05/02 11:53:53;;;;;;;3.75;1.45;;;23.30;43.00;;;;;;4958575;29;20035;-81
2023/05/02 11:56:23;;;;;;;2.95;1.48;;;23.60;43.50;;;;;;4959440;29;20078;-81
2023/05/02 11:59:00;;;;;;;2.22;1.35;;;23.60;43.10;;;;;;4958203;29;20090;-81
2023/05/02 12:01:26;;;;;;;3.45;1.48;;;23.60;41.50;;;;;;4959289;29;20122;-81
2023/05/02 12:04:06;;;;;;;2.97;1.30;;;23.80;42.20;;;;;;4948524;29;20070;-81
2023/05/02 12:06:32;;;;;;;4.47;1.63;;;23.90;42.40;;;;;;4959192;29;20032;-81
2023/05/02 12:09:10;;;;;;;3.30;1.40;;;23.90;41.00;;;;;;4958507;29;20034;-81
2023/05/02 12:11:37;;;;;;;3.42;1.77;;;24.00;43.00;;;;;;4963273;28;20023;-81
2023/05/02 12:14:04;;;;;;;3.42;1.40;;;23.90;41.70;;;;;;4978406;28;20035;-81
2023/05/02 12:16:30;;;;;;;3.00;1.83;;;24.00;42.70;;;;;;4978213;28;20481;-81
2023/05/02 12:18:58;;;;;;;4.25;1.80;;;23.70;40.90;;;;;;4969287;28;20035;-81
2023/05/02 12:21:25;;;;;;;3.55;1.20;;;23.80;41.70;;;;;;4959094;29;20065;-82
2023/05/02 12:23:52;;;;;;;4.82;1.67;;;24.00;44.00;;;;;;4957699;29;20065;-81
2023/05/02 12:26:24;;;;;;;3.97;1.48;;;24.30;42.40;;;;;;4958889;29;20019;-81
2023/05/02 12:28:57;;;;;;;6.85;1.80;;;24.50;41.80;;;;;;4958139;29;20042;-81
2023/05/02 12:31:24;;;;;;;4.25;1.60;;;24.40;40.60;;;;;;4958640;29;20023;-80
2023/05/02 12:33:54;;;;;;;2.53;1.30;;;24.30;40.50;;;;;;4940340;29;20050;-81
2023/05/02 12:36:19;;;;;;;1.88;1.40;;;24.30;41.70;;;;;;4937110;29;20118;-81
2023/05/02 12:38:52;;;;;;;2.50;1.58;;;24.10;41.00;;;;;;4922200;29;20059;-81
2023/05/02 12:41:19;;;;;;;3.88;1.42;;;24.10;41.20;;;;;;4939514;29;20020;-81
2023/05/02 12:43:49;;;;;;;2.08;1.13;;;24.20;42.00;;;;;;4946946;29;20028;-81
2023/05/02 12:46:16;;;;;;;3.50;1.30;;;24.50;43.80;;;;;;4958411;29;20019;-81
2023/05/02 12:48:42;;;;;;;2.03;1.40;;;24.60;42.20;;;;;;4959851;28;20042;-81
2023/05/02 12:51:20;;;;;;;2.08;1.40;;;24.20;41.00;;;;;;4958342;29;20042;-81
2023/05/02 12:53:46;;;;;;;2.90;1.05;;;24.10;42.10;;;;;;4940423;29;20042;-81
2023/05/02 12:56:12;;;;;;;2.00;1.40;;;24.30;43.40;;;;;;4958615;29;20026;-81
2023/05/02 12:58:43;;;;;;;2.65;1.30;;;24.30;42.90;;;;;;4969757;28;20041;-81
2023/05/02 13:01:09;;;;;;;4.00;1.20;;;24.30;42.30;;;;;;4969610;28;20042;-80
2023/05/02 13:03:35;;;;;;;2.17;1.33;;;24.30;42.40;;;;;;4940952;29;20122;-81
2023/05/02 13:06:01;;;;;;;2.13;1.58;;;24.20;42.30;;;;;;4948808;29;20016;-81
2023/05/02 13:08:26;;;;;;;2.97;1.30;;;24.10;41.90;;;;;;4947805;29;20059;-81
2023/05/02 13:10:52;;;;;;;3.90;1.55;;;23.80;41.10;;;;;;4958017;29;20019;-81
2023/05/02 13:13:18;;;;;;;1.70;1.10;;;23.70;41.40;;;;;;4975161;28;20031;-81
2023/05/02 13:15:44;;;;;;;4.38;1.33;;;23.30;42.30;;;;;;4960428;28;20039;-81
2023/05/02 13:18:10;;;;;;;3.35;1.58;;;23.20;43.40;;;;;;4957995;29;20031;-81
2023/05/02 13:20:35;;;;;;;2.70;1.10;;;23.10;43.00;;;;;;4957915;29;20027;-81
2023/05/02 13:23:01;;;;;;;3.03;1.20;;;23.10;42.60;;;;;;4957049;29;20039;-80
2023/05/02 13:25:26;;;;;;;4.15;1.55;;;23.20;43.50;;;;;;4957843;29;20023;-80
2023/05/02 13:27:52;;;;;;;5.20;1.58;;;23.20;43.30;;;;;;4956569;29;20514;-81
2023/05/02 13:30:18;;;;;;;2.38;1.40;;;23.20;41.90;;;;;;4956716;28;20020;-80
2023/05/02 13:32:44;;;;;;;2.83;1.60;;;23.20;41.60;;;;;;4957791;29;20072;-80
2023/05/02 13:35:12;;;;;;;2.13;1.20;;;23.30;41.30;;;;;;4956767;29;20109;-80
2023/05/02 13:37:38;;;;;;;3.15;1.50;;;23.60;40.60;;;;;;4940694;29;20045;-80
2023/05/02 13:40:05;;;;;;;2.83;1.73;;;23.80;39.60;;;;;;4957766;29;20023;-84
2023/05/02 13:42:31;;;;;;;3.38;1.65;;;23.80;38.90;;;;;;4956790;29;20027;-80
2023/05/02 13:44:57;;;;;;;5.03;1.60;;;23.60;39.80;;;;;;4957378;28;20107;-81
2023/05/02 13:47:23;;;;;;;3.55;1.67;;;23.50;40.00;;;;;;4940546;29;20051;-80
2023/05/02 13:49:48;;;;;;;3.88;2.42;;;23.80;41.20;;;;;;4947596;29;20035;-81
2023/05/02 13:52:14;;;;;;;3.38;1.50;;;23.80;41.50;;;;;;4946946;28;20027;-83
2023/05/02 13:54:40;;;;;;;3.40;1.80;;;23.80;41.60;;;;;;4956450;29;20043;-81
2023/05/02 13:57:06;;;;;;;3.17;2.03;;;23.30;40.30;;;;;;4957562;29;20035;-83
2023/05/02 13:59:31;;;;;;;3.58;1.58;;;22.80;40.80;;;;;;4956534;29;20444;-81
2023/05/02 14:01:57;;;;;;;3.30;1.58;;;22.50;42.60;;;;;;4957357;29;20079;-80
2023/05/02 14:04:22;;;;;;;3.80;1.42;;;22.70;42.20;;;;;;4957437;28;20023;-81
2023/05/02 14:06:48;;;;;;;3.42;1.60;;;23.00;41.50;;;;;;4957391;29;20029;-81
2023/05/02 14:09:14;;;;;;;4.07;1.55;;;23.30;41.50;;;;;;4947586;29;20032;-81
2023/05/02 14:11:40;;;;;;;3.42;1.33;;;23.30;40.50;;;;;;4956281;28;20051;-81
2023/05/02 14:14:06;;;;;;;2.15;1.20;;;23.50;40.50;;;;;;4940013;29;20434;-81
2023/05/02 14:16:33;;;;;;;2.95;1.33;;;23.60;40.60;;;;;;4935622;29;20046;-81
2023/05/02 14:18:59;;;;;;;2.10;1.08;;;23.80;40.30;;;;;;4938093;29;20028;-81
2023/05/02 14:21:26;;;;;;;2.45;1.15;;;23.50;37.70;;;;;;4921654;29;20034;-81
2023/05/02 14:23:51;;;;;;;1.85;1.40;;;23.50;39.70;;;;;;4938105;29;20043;-81
2023/05/02 14:26:18;;;;;;;2.00;1.10;;;23.40;38.60;;;;;;4953049;29;20379;-81
2023/05/02 14:28:45;;;;;;;2.35;1.00;;;23.60;39.40;;;;;;4957240;29;20023;-81
2023/05/02 14:31:10;;;;;;;1.77;1.20;;;23.90;39.80;;;;;;4939132;29;20589;-81
2023/05/02 14:33:36;;;;;;;1.80;1.30;;;23.90;38.80;;;;;;4939751;29;20050;-81
2023/05/02 14:36:02;;;;;;;2.53;1.00;;;23.80;39.70;;;;;;4947342;29;20035;-81
2023/05/02 14:38:28;;;;;;;3.72;1.27;;;23.80;40.90;;;;;;4945174;29;20115;-81
2023/05/02 14:40:54;;;;;;;2.60;1.00;;;23.80;40.70;;;;;;4945943;29;20055;-81
2023/05/02 14:43:20;;;;;;;2.72;1.35;;;23.90;40.90;;;;;;4947852;29;20038;-81
2023/05/02 14:45:46;;;;;;;1.50;0.95;;;23.90;40.60;;;;;;4945517;29;20016;-81
2023/05/02 14:48:12;;;;;;;2.47;1.33;;;23.90;40.30;;;;;;4946233;29;20027;-81
2023/05/02 14:50:39;;;;;;;2.38;0.93;;;24.10;40.60;;;;;;4946712;29;20479;-80
2023/05/02 14:53:05;;;;;;;1.30;0.80;;;24.10;39.20;;;;;;4952658;28;20023;-80
2023/05/02 14:55:40;;;;;;;2.25;1.15;;;24.00;40.30;;;;;;4947157;29;20039;-78
2023/05/02 14:58:07;;;;;;;3.95;1.00;;;23.80;40.20;;;;;;4948314;29;20031;-81
2023/05/02 15:00:36;;;;;;;2.22;0.93;;;23.80;40.20;;;;;;4954368;28;20111;-82
2023/05/02 15:03:06;;;;;;;2.53;1.25;;;23.80;41.00;;;;;;4949915;29;20107;-81
2023/05/02 15:05:32;;;;;;;1.67;1.02;;;23.80;41.10;;;;;;4949895;29;20473;-80
2023/05/02 15:07:58;;;;;;;1.70;1.27;;;23.80;41.60;;;;;;4948954;29;20024;-80
2023/05/02 15:10:24;;;;;;;1.85;1.10;;;23.70;41.60;;;;;;4951937;29;20062;-79
2023/05/02 15:12:50;;;;;;;2.20;1.13;;;23.60;41.10;;;;;;4948820;29;20555;-78
2023/05/02 15:15:19;;;;;;;3.72;1.30;;;23.50;41.70;;;;;;4945516;29;20715;-79
2023/05/02 15:17:44;;;;;;;2.25;1.00;;;23.20;41.20;;;;;;4956749;29;20023;-79
2023/05/02 15:20:11;;;;;;;2.97;1.10;;;23.20;40.30;;;;;;4946717;29;20046;-79
2023/05/02 15:22:37;;;;;;;1.77;0.90;;;23.10;41.00;;;;;;4931678;29;20035;-80
2023/05/02 15:25:03;;;;;;;3.08;1.10;;;23.20;42.10;;;;;;4948361;29;20020;-79
2023/05/02 15:27:28;;;;;;;1.80;1.10;;;23.20;40.00;;;;;;4947976;29;20035;-79
2023/05/02 15:29:54;;;;;;;2.55;1.27;;;23.30;41.10;;;;;;4946116;29;20023;-79
2023/05/02 15:32:20;;;;;;;6.20;1.20;;;23.30;39.60;;;;;;4948866;29;20027;-79
2023/05/02 15:34:46;;;;;;;4.00;1.10;;;23.40;40.90;;;;;;4948308;29;20020;-79
2023/05/02 15:37:12;;;;;;;2.33;1.20;;;23.20;40.50;;;;;;4948190;29;20028;-80
2023/05/02 15:39:37;;;;;;;2.53;1.17;;;23.20;41.10;;;;;;4949732;29;20034;-80
2023/05/02 15:42:04;;;;;;;1.42;0.80;;;23.20;41.70;;;;;;4947343;29;20402;-80
2023/05/02 15:44:36;;;;;;;1.48;0.82;;;23.10;41.90;;;;;;4946812;29;20498;-79
2023/05/02 15:47:02;;;;;;;1.83;1.00;;;22.90;41.00;;;;;;4954511;28;20038;-80
2023/05/02 15:49:31;;;;;;;3.05;1.33;;;22.80;41.00;;;;;;4947771;29;20122;-79
2023/05/02 15:51:58;;;;;;;2.93;1.63;;;22.70;40.30;;;;;;4940264;29;20023;-80
2023/05/02 15:54:24;;;;;;;1.85;1.00;;;22.70;41.10;;;;;;4955599;29;20024;-79
2023/05/02 15:56:49;;;;;;;2.13;1.17;;;22.70;40.90;;;;;;4954911;29;20038;-80
2023/05/02 15:59:15;;;;;;;3.72;1.20;;;22.70;41.30;;;;;;4944363;29;20110;-80
2023/05/02 16:01:41;;;;;;;2.05;1.10;;;23.00;42.00;;;;;;4949555;29;20047;-84
2023/05/02 16:04:08;;;;;;;2.70;1.23;;;23.10;41.90;;;;;;4960783;28;20058;-79
2023/05/02 16:06:35;;;;;;;2.55;1.00;;;23.30;41.30;;;;;;4934293;28;20019;-78
2023/05/02 16:09:01;;;;;;;2.85;1.25;;;23.40;41.20;;;;;;4948786;28;20516;-77
2023/05/02 16:11:26;;;;;;;2.83;1.02;;;23.30;40.90;;;;;;4945431;29;20063;-78
2023/05/02 16:13:52;;;;;;;3.05;1.35;;;23.20;40.10;;;;;;4952831;29;20509;-77
2023/05/02 16:16:18;;;;;;;1.88;1.25;;;23.00;39.70;;;;;;4957476;29;20066;-78
2023/05/02 16:18:43;;;;;;;5.35;1.25;;;22.90;40.90;;;;;;4956521;29;20031;-80
2023/05/02 16:21:10;;;;;;;2.40;1.30;;;23.20;42.20;;;;;;4964688;28;20038;-79
2023/05/02 16:23:35;;;;;;;2.38;1.30;;;23.30;41.20;;;;;;4950271;28;20083;-80
2023/05/02 16:26:01;;;;;;;2.10;1.10;;;23.50;41.90;;;;;;4949244;28;20032;-80
2023/05/02 16:28:28;;;;;;;1.75;0.88;;;23.70;41.50;;;;;;4944410;29;20058;-80
2023/05/02 16:30:53;;;;;;;2.60;1.05;;;23.60;40.70;;;;;;4940285;29;20031;-79
2023/05/02 16:33:20;;;;;;;2.28;1.00;;;23.50;42.10;;;;;;4953155;28;20110;-80
2023/05/02 16:35:46;;;;;;;2.15;1.10;;;23.10;41.90;;;;;;4958263;29;20027;-80
2023/05/02 16:38:12;;;;;;;2.15;1.10;;;23.00;43.10;;;;;;4958222;29;20057;-80
2023/05/02 16:40:38;;;;;;;2.70;1.00;;;22.80;43.50;;;;;;4948293;29;20042;-79
2023/05/02 16:43:04;;;;;;;1.88;0.90;;;22.70;42.90;;;;;;4939148;29;20035;-79
2023/05/02 16:45:30;;;;;;;3.53;1.13;;;22.60;43.50;;;;;;4951887;28;20512;-79
2023/05/02 16:47:56;;;;;;;1.80;1.10;;;22.40;41.60;;;;;;4953917;29;20054;-80
2023/05/02 16:50:22;;;;;;;2.42;1.17;;;22.40;42.50;;;;;;4956854;28;20031;-80
2023/05/02 16:52:48;;;;;;;3.47;1.20;;;22.40;42.20;;;;;;4951599;29;20032;-79
2023/05/02 16:55:14;;;;;;;2.30;1.10;;;22.40;41.80;;;;;;4953098;28;20031;-79
2023/05/02 16:57:41;;;;;;;2.00;1.30;;;22.50;42.10;;;;;;4936233;28;20029;-80
2023/05/02 17:00:09;;;;;;;2.90;1.35;;;22.40;41.40;;;;;;4954712;28;20031;-79
2023/05/02 17:02:35;;;;;;;3.13;1.40;;;22.50;40.70;;;;;;4959402;28;20047;-80
2023/05/02 17:05:00;;;;;;;2.22;1.27;;;22.40;41.40;;;;;;4954544;29;20458;-80
2023/05/02 17:07:26;;;;;;;4.70;1.73;;;22.50;41.90;;;;;;4956700;29;20031;-80
2023/05/02 17:09:52;;;;;;;4.82;1.30;;;22.40;40.60;;;;;;4947231;28;20035;-87
2023/05/02 17:12:21;;;;;;;4.00;1.38;;;22.30;41.20;;;;;;4936045;29;20035;-78
2023/05/02 17:14:47;;;;;;;2.75;1.13;;;22.30;41.90;;;;;;4926477;29;20036;-84
2023/05/02 17:17:13;;;;;;;3.40;1.10;;;22.30;41.80;;;;;;4959898;28;20049;-84
2023/05/02 17:19:39;;;;;;;2.10;1.05;;;22.30;42.30;;;;;;4975657;28;20413;-84
2023/05/02 17:22:05;;;;;;;3.17;1.48;;;22.30;41.90;;;;;;4961625;28;20035;-83
2023/05/02 17:24:31;;;;;;;3.38;1.27;;;22.10;40.40;;;;;;4957420;28;20401;-84